createdAt,value
2022-10-11T00:00:49.441Z,958.147644
2022-10-11T00:01:49.921Z,958.1581421
2022-10-11T00:02:50.575Z,958.1757813
2022-10-11T00:03:51.057Z,958.1420898
2022-10-11T00:04:51.549Z,958.1467285
2022-10-11T00:05:52.079Z,958.1081543
2022-10-11T00:06:52.551Z,958.126709
2022-10-11T00:07:53.075Z,958.1071777
2022-10-11T00:08:53.555Z,958.1356201
2022-10-11T00:09:54.075Z,958.1329956
2022-10-11T00:10:54.601Z,958.2045288
2022-10-11T00:11:55.889Z,958.1665649
2022-10-11T00:12:56.377Z,958.1721191
2022-10-11T00:13:56.890Z,958.1721191
2022-10-11T00:14:57.446Z,958.1848145
2022-10-11T00:15:57.938Z,958.196228
2022-10-11T00:16:58.424Z,958.2090454
2022-10-11T00:18:03.244Z,958.1828613
2022-10-11T00:18:59.472Z,958.2383423
2022-10-11T00:20:00.654Z,958.2276001
2022-10-11T00:21:01.210Z,958.2334595
2022-10-11T00:22:01.703Z,958.2236938
2022-10-11T00:23:02.227Z,958.2034302
2022-10-11T00:24:02.758Z,958.2279663
2022-10-11T00:25:03.931Z,958.2288818
2022-10-11T00:26:04.840Z,958.1809082
2022-10-11T00:27:05.043Z,958.2243652
2022-10-11T00:28:05.536Z,958.1901855
2022-10-11T00:29:06.063Z,958.1966553
2022-10-11T00:30:37.921Z,958.2073364
2022-10-11T00:31:38.448Z,958.2025146
2022-10-11T00:32:38.946Z,958.236084
2022-10-11T00:33:39.424Z,958.2034302
2022-10-11T00:34:39.947Z,958.2123413
2022-10-11T00:35:40.429Z,958.2025146
2022-10-11T00:36:40.975Z,958.2564087
2022-10-11T00:37:41.396Z,958.2178345
2022-10-11T00:38:41.920Z,958.2315674
2022-10-11T00:39:42.389Z,958.2315674
2022-10-11T00:40:43.413Z,958.2521973
2022-10-11T00:41:43.909Z,958.2240601
2022-10-11T00:42:44.372Z,958.281189
2022-10-11T00:43:44.898Z,958.2197876
2022-10-11T00:44:45.386Z,958.208374
2022-10-11T00:45:45.924Z,958.2312012
2022-10-11T00:46:46.463Z,958.2619019
2022-10-11T00:47:46.944Z,958.2628174
2022-10-11T00:48:47.452Z,958.2651367
2022-10-11T00:49:47.929Z,958.2824707
2022-10-11T00:50:49.468Z,958.2700195
2022-10-11T00:51:49.999Z,958.2739258
2022-10-11T00:52:50.545Z,958.2853394
2022-10-11T00:53:51.085Z,958.2804565
2022-10-11T00:54:51.580Z,958.2902832
2022-10-11T00:55:52.125Z,958.2957764
2022-10-11T00:56:52.684Z,958.2706909
2022-10-11T00:57:53.128Z,958.2298584
2022-10-11T00:58:53.660Z,958.2354736
2022-10-11T00:59:54.156Z,958.2233887
2022-10-11T01:00:55.545Z,958.2282715
2022-10-11T01:01:55.959Z,958.2396851
2022-10-11T01:02:56.426Z,958.2380371
2022-10-11T01:03:56.958Z,958.2583008
2022-10-11T01:05:25.250Z,958.2376709
2022-10-11T01:05:57.984Z,958.2497559
2022-10-11T01:06:58.534Z,958.262207
2022-10-11T01:07:59.672Z,958.2644653
2022-10-11T01:09:00.185Z,958.2732544
2022-10-11T01:10:00.745Z,958.2748413
2022-10-11T01:11:01.888Z,958.2797852
2022-10-11T01:12:02.443Z,958.2581787
2022-10-11T01:13:02.930Z,958.2745361
2022-10-11T01:14:03.508Z,958.3137207
2022-10-11T01:15:03.996Z,958.2793579
2022-10-11T01:16:04.734Z,958.2546387
2022-10-11T01:17:04.946Z,958.2703247
2022-10-11T01:18:05.417Z,958.3182983
2022-10-11T01:19:36.412Z,958.2683105
2022-10-11T01:20:37.661Z,958.3025513
2022-10-11T01:21:38.149Z,958.3287354
2022-10-11T01:22:38.642Z,958.3384399
2022-10-11T01:23:39.105Z,958.3685303
2022-10-11T01:24:40.170Z,958.3609619
2022-10-11T01:25:40.689Z,958.3626709
2022-10-11T01:26:41.197Z,958.3844604
2022-10-11T01:27:41.738Z,958.4343872
2022-10-11T01:28:42.334Z,958.407959
2022-10-11T01:29:43.655Z,958.3894043
2022-10-11T01:30:45.160Z,958.390625
2022-10-11T01:31:45.614Z,958.3817749
2022-10-11T01:32:46.116Z,958.3996582
2022-10-11T01:33:46.592Z,958.3798218
2022-10-11T01:34:47.677Z,958.374939
2022-10-11T01:35:48.147Z,958.3716431
2022-10-11T01:36:48.626Z,958.4179688
2022-10-11T01:37:49.099Z,958.3990479
2022-10-11T01:38:49.578Z,958.3817139
2022-10-11T01:39:50.092Z,958.3693237
2022-10-11T01:40:51.650Z,958.3898315
2022-10-11T01:41:52.116Z,958.3970337
2022-10-11T01:42:52.571Z,958.3595581
2022-10-11T01:43:53.064Z,958.3654175
2022-10-11T01:44:53.551Z,958.3457642
2022-10-11T01:45:54.007Z,958.3415527
2022-10-11T01:46:54.523Z,958.3187256
2022-10-11T01:47:55.043Z,958.3150635
2022-10-11T01:48:55.505Z,958.3314209
2022-10-11T01:49:55.969Z,958.2896118
2022-10-11T01:50:57.256Z,958.3320313
2022-10-11T01:51:57.650Z,958.3417969
2022-10-11T01:52:58.148Z,958.3218994
2022-10-11T01:53:58.606Z,958.295166
2022-10-11T01:55:09.034Z,958.2849731
2022-10-11T01:55:59.599Z,958.2940674
2022-10-11T01:57:00.072Z,958.2888794
2022-10-11T01:58:00.538Z,958.2937622
2022-10-11T01:59:01.924Z,958.3071289
2022-10-11T02:00:02.444Z,958.3040771
2022-10-11T02:01:02.992Z,958.3128052
2022-10-11T02:02:03.388Z,958.3016968
2022-10-11T02:03:04.387Z,958.3381958
2022-10-11T02:04:05.377Z,958.3209229
2022-10-11T02:05:36.152Z,958.3531494
2022-10-11T02:06:36.657Z,958.3354492
2022-10-11T02:07:37.115Z,958.3334351
2022-10-11T02:08:37.584Z,958.2954712
2022-10-11T02:09:38.928Z,958.3473511
2022-10-11T02:10:39.403Z,958.3300171
2022-10-11T02:11:39.858Z,958.3387451
2022-10-11T02:12:40.895Z,958.31073
2022-10-11T02:13:41.371Z,958.3057861
2022-10-11T02:14:41.846Z,958.3112793
2022-10-11T02:15:42.360Z,958.3223267
2022-10-11T02:16:42.863Z,958.3060303
2022-10-11T02:17:43.377Z,958.2929688
2022-10-11T02:18:43.849Z,958.2543945
2022-10-11T02:19:44.328Z,958.2492065
2022-10-11T02:20:44.817Z,958.262207
2022-10-11T02:21:45.278Z,958.2420044
2022-10-11T02:22:45.754Z,958.2497559
2022-10-11T02:23:46.288Z,958.2139282
2022-10-11T02:24:46.783Z,958.1959229
2022-10-11T02:25:47.288Z,958.210022
2022-10-11T02:26:47.726Z,958.2008057
2022-10-11T02:27:48.195Z,958.2079468
2022-10-11T02:28:48.762Z,958.149231
2022-10-11T02:29:49.159Z,958.1296997
2022-10-11T02:30:50.459Z,958.1867065
2022-10-11T02:31:50.935Z,958.1798706
2022-10-11T02:32:51.398Z,958.1400757
2022-10-11T02:33:51.915Z,958.1798706
2022-10-11T02:34:52.400Z,958.1777954
2022-10-11T02:35:52.881Z,958.187561
2022-10-11T02:36:53.336Z,958.1829834
2022-10-11T02:37:53.801Z,958.2301636
2022-10-11T02:38:54.284Z,958.22229
2022-10-11T02:39:55.511Z,958.2528687
2022-10-11T02:40:56.674Z,958.2279663
2022-10-11T02:41:57.136Z,958.149292
2022-10-11T02:42:57.581Z,958.1802979
2022-10-11T02:43:58.060Z,958.2255249
2022-10-11T02:44:58.563Z,958.222168
2022-10-11T02:45:59.013Z,958.217041
2022-10-11T02:46:59.538Z,958.2593994
2022-10-11T02:48:00.010Z,958.2288818
2022-10-11T02:49:00.566Z,958.2415771
2022-10-11T02:50:01.096Z,958.265625
2022-10-11T02:51:02.228Z,958.2739868
2022-10-11T02:52:02.755Z,958.2762451
2022-10-11T02:53:03.256Z,958.2839966
2022-10-11T02:54:03.760Z,958.2463989
2022-10-11T02:55:04.786Z,958.2215576
2022-10-11T02:56:35.541Z,958.1693726
2022-10-11T02:57:36.047Z,958.1576538
2022-10-11T02:58:36.502Z,958.1526489
2022-10-11T02:59:37.953Z,958.1281738
2022-10-11T03:00:38.569Z,958.1109619
2022-10-11T03:01:40.026Z,958.1451416
2022-10-11T03:02:40.534Z,958.133728
2022-10-11T03:03:41.033Z,958.1659546
2022-10-11T03:04:41.516Z,958.1578369
2022-10-11T03:05:42.086Z,958.1757202
2022-10-11T03:06:42.647Z,958.1698608
2022-10-11T03:07:43.186Z,958.2196655
2022-10-11T03:08:44.666Z,958.2017212
2022-10-11T03:09:45.162Z,958.1876831
2022-10-11T03:10:45.730Z,958.2218628
2022-10-11T03:11:46.991Z,958.2307129
2022-10-11T03:12:47.541Z,958.2545166
2022-10-11T03:13:48.077Z,958.2355957
2022-10-11T03:14:48.555Z,958.2457886
2022-10-11T03:15:49.444Z,958.2294312
2022-10-11T03:16:51.538Z,958.2750854
2022-10-11T03:17:50.503Z,958.258728
2022-10-11T03:18:51.014Z,958.2904053
2022-10-11T03:19:51.582Z,958.2496948
2022-10-11T03:20:52.094Z,958.2653198
2022-10-11T03:21:53.401Z,958.2561646
2022-10-11T03:22:56.717Z,958.2653198
2022-10-11T03:23:57.989Z,958.2756958
2022-10-11T03:25:03.694Z,958.2782593
2022-10-11T03:25:59.714Z,958.2821655
2022-10-11T03:27:00.211Z,958.3062744
2022-10-11T03:28:00.691Z,958.2840576
2022-10-11T03:29:01.243Z,958.2546997
2022-10-11T03:30:01.803Z,958.2427979
2022-10-11T03:31:02.404Z,958.2548218
2022-10-11T03:32:03.674Z,958.270752
2022-10-11T03:33:34.671Z,958.2615356
2022-10-11T03:34:35.379Z,958.2420044
2022-10-11T03:35:35.904Z,958.2446899
2022-10-11T03:36:36.464Z,958.269043
2022-10-11T03:37:36.996Z,958.2146606
2022-10-11T03:38:38.468Z,958.2468872
2022-10-11T03:39:38.969Z,958.2860718
2022-10-11T03:40:39.536Z,958.2772827
2022-10-11T03:41:40.697Z,958.2788086
2022-10-11T03:42:41.285Z,958.2609253
2022-10-11T03:43:41.767Z,958.2723389
2022-10-11T03:44:42.300Z,958.2750244
2022-10-11T03:45:42.718Z,958.2380981
2022-10-11T03:46:43.320Z,958.2799072
2022-10-11T03:47:43.842Z,958.2374878
2022-10-11T03:48:44.411Z,958.2245483
2022-10-11T03:49:45.708Z,958.2776489
2022-10-11T03:50:46.171Z,958.2483521
2022-10-11T03:51:47.214Z,958.265625
2022-10-11T03:52:47.833Z,958.2943726
2022-10-11T03:53:48.400Z,958.2982788
2022-10-11T03:54:48.956Z,958.2878418
2022-10-11T03:55:49.469Z,958.3187256
2022-10-11T03:56:50.000Z,958.3552856
2022-10-11T03:57:50.591Z,958.3054199
2022-10-11T03:58:51.130Z,958.3060303
2022-10-11T03:59:51.716Z,958.3190918
2022-10-11T04:00:52.200Z,958.3184204
2022-10-11T04:01:53.234Z,958.3131104
2022-10-11T04:02:53.655Z,958.3222656
2022-10-11T04:03:54.311Z,958.3137207
2022-10-11T04:04:55.729Z,958.2990723
2022-10-11T04:05:56.226Z,958.3267212
2022-10-11T04:06:56.731Z,958.3198242
2022-10-11T04:07:57.268Z,958.3361206
2022-10-11T04:08:57.805Z,958.3405762
2022-10-11T04:09:58.413Z,958.3926392
2022-10-11T04:10:58.910Z,958.3596802
2022-10-11T04:12:00.200Z,958.3465576
2022-10-11T04:13:00.706Z,958.3758545
2022-10-11T04:14:01.199Z,958.3292236
2022-10-11T04:15:01.750Z,958.3677368
2022-10-11T04:16:02.746Z,958.3423462
2022-10-11T04:17:02.872Z,958.3314819
2022-10-11T04:18:34.274Z,958.3015747
2022-10-11T04:19:34.829Z,958.3347778
2022-10-11T04:20:35.387Z,958.3103027
2022-10-11T04:21:36.696Z,958.2698364
2022-10-11T04:22:37.220Z,958.2893677
2022-10-11T04:23:37.718Z,958.3007813
2022-10-11T04:24:38.157Z,958.3040771
2022-10-11T04:25:38.675Z,958.2584229
2022-10-11T04:26:39.185Z,958.3161011
2022-10-11T04:27:39.743Z,958.2990723
2022-10-11T04:28:40.336Z,958.300293
2022-10-11T04:29:40.823Z,958.3150024
2022-10-11T04:30:41.314Z,958.321106
2022-10-11T04:31:42.719Z,958.3357544
2022-10-11T04:32:43.267Z,958.3048706
2022-10-11T04:33:43.830Z,958.2868652
2022-10-11T04:34:44.388Z,958.3135986
2022-10-11T04:35:44.897Z,958.3239136
2022-10-11T04:36:49.649Z,958.2977905
2022-10-11T04:37:45.994Z,958.3304443
2022-10-11T04:38:46.631Z,958.329834
2022-10-11T04:39:48.220Z,958.3460693
2022-10-11T04:40:48.819Z,958.3477173
2022-10-11T04:41:49.352Z,958.3711548
2022-10-11T04:42:49.874Z,958.3721313
2022-10-11T04:43:50.511Z,958.4199829
2022-10-11T04:44:51.055Z,958.3994751
2022-10-11T04:45:55.283Z,958.4265137
2022-10-11T04:46:52.220Z,958.3961182
2022-10-11T04:47:52.721Z,958.4081421
2022-10-11T04:48:53.230Z,958.4064941
2022-10-11T04:49:53.819Z,958.4054565
2022-10-11T04:50:54.405Z,958.4185181
2022-10-11T04:51:55.735Z,958.3842163
2022-10-11T04:52:56.236Z,958.4348145
2022-10-11T04:53:56.714Z,958.4227905
2022-10-11T04:54:57.226Z,958.4391479
2022-10-11T04:55:57.879Z,958.3928833
2022-10-11T04:56:58.616Z,958.4037476
2022-10-11T04:57:59.192Z,958.4363403
2022-10-11T04:58:59.710Z,958.3965454
2022-10-11T05:00:00.235Z,958.4025269
2022-10-11T05:01:00.776Z,958.4382935
2022-10-11T05:02:02.372Z,958.4106445
2022-10-11T05:03:03.288Z,958.4421997
2022-10-11T05:04:34.171Z,958.4274902
2022-10-11T05:05:34.707Z,958.4281006
2022-10-11T05:06:35.330Z,958.4780273
2022-10-11T05:07:35.869Z,958.4494019
2022-10-11T05:08:36.393Z,958.4558105
2022-10-11T05:09:37.700Z,958.4698486
2022-10-11T05:10:38.184Z,958.4454956
2022-10-11T05:11:38.715Z,958.4467163
2022-10-11T05:12:39.244Z,958.4320068
2022-10-11T05:13:40.632Z,958.4542236
2022-10-11T05:14:41.178Z,958.4068604
2022-10-11T05:15:41.714Z,958.4248657
2022-10-11T05:16:42.263Z,958.3978271
2022-10-11T05:17:42.763Z,958.4558105
2022-10-11T05:18:43.462Z,958.4346924
2022-10-11T05:19:44.038Z,958.4573975
2022-10-11T05:20:44.621Z,958.4542236
2022-10-11T05:21:45.139Z,958.4378662
2022-10-11T05:22:46.465Z,958.4450073
2022-10-11T05:23:47.071Z,958.4206543
2022-10-11T05:24:47.656Z,958.4245605
2022-10-11T05:25:48.194Z,958.4400635
2022-10-11T05:26:48.705Z,958.3853149
2022-10-11T05:27:49.209Z,958.3723145
2022-10-11T05:28:49.825Z,958.374939
2022-10-11T05:29:51.251Z,958.3781738
2022-10-11T05:30:51.783Z,958.401001
2022-10-11T05:31:52.304Z,958.401001
2022-10-11T05:32:52.818Z,958.4271851
2022-10-11T05:33:53.926Z,958.3913574
2022-10-11T05:34:54.551Z,958.3998413
2022-10-11T05:35:55.134Z,958.3917236
2022-10-11T05:36:55.718Z,958.4070435
2022-10-11T05:37:56.279Z,958.4193726
2022-10-11T05:38:56.799Z,958.3998413
2022-10-11T05:39:57.385Z,958.4356079
2022-10-11T05:40:57.914Z,958.4486694
2022-10-11T05:41:58.472Z,958.4421997
2022-10-11T05:43:00.002Z,958.4434204
2022-10-11T05:44:00.539Z,958.4564209
2022-10-11T05:45:01.080Z,958.4140625
2022-10-11T05:46:01.885Z,958.4671631
2022-10-11T05:47:02.080Z,958.4098511
2022-10-11T05:48:34.017Z,958.4433594
2022-10-11T05:49:34.561Z,958.4590454
2022-10-11T05:50:35.120Z,958.4662476
2022-10-11T05:51:35.568Z,958.4656372
2022-10-11T05:52:37.038Z,958.5004883
2022-10-11T05:53:37.541Z,958.4857788
2022-10-11T05:54:38.952Z,958.4923706
2022-10-11T05:55:39.475Z,958.4776611
2022-10-11T05:56:39.987Z,958.5271606
2022-10-11T05:57:40.482Z,958.5613403
2022-10-11T05:58:41.103Z,958.5296631
2022-10-11T05:59:41.671Z,958.5101318
2022-10-11T06:00:42.204Z,958.5271606
2022-10-11T06:01:42.810Z,958.5125122
2022-10-11T06:02:43.171Z,958.5395508
2022-10-11T06:03:43.721Z,958.522644
2022-10-11T06:04:44.269Z,958.5487671
2022-10-11T06:05:44.828Z,958.5471191
2022-10-11T06:06:45.308Z,958.5301514
2022-10-11T06:07:45.818Z,958.5715332
2022-10-11T06:08:46.299Z,958.5432739
2022-10-11T06:09:46.847Z,958.5595093
2022-10-11T06:10:48.001Z,958.5964355
2022-10-11T06:11:48.517Z,958.5895386
2022-10-11T06:12:49.087Z,958.5709229
2022-10-11T06:13:50.511Z,958.635498
2022-10-11T06:14:50.996Z,958.6387329
2022-10-11T06:15:51.572Z,958.6837769
2022-10-11T06:16:52.116Z,958.6984253
2022-10-11T06:17:52.674Z,958.6240845
2022-10-11T06:18:53.222Z,958.6567383
2022-10-11T06:19:53.751Z,958.6768799
2022-10-11T06:20:54.282Z,958.664856
2022-10-11T06:21:54.846Z,958.6264038
2022-10-11T06:22:56.059Z,958.6101074
2022-10-11T06:24:01.142Z,958.6576538
2022-10-11T06:24:57.166Z,958.6398315
2022-10-11T06:25:57.674Z,958.6489868
2022-10-11T06:26:58.180Z,958.6196899
2022-10-11T06:27:58.784Z,958.6392212
2022-10-11T06:28:59.374Z,958.6223145
2022-10-11T06:29:59.879Z,958.6478271
2022-10-11T06:31:00.434Z,958.6414185
2022-10-11T06:32:00.918Z,958.6521606
2022-10-11T06:33:32.698Z,958.6118164
2022-10-11T06:34:33.271Z,958.637207
2022-10-11T06:35:34.756Z,958.62323
2022-10-11T06:36:35.252Z,958.6404419
2022-10-11T06:37:35.759Z,958.6878052
2022-10-11T06:38:39.797Z,958.7023926
2022-10-11T06:39:36.929Z,958.7181396
2022-10-11T06:40:37.507Z,958.7366943
2022-10-11T06:41:37.975Z,958.7376709
2022-10-11T06:42:39.194Z,958.7012329
2022-10-11T06:43:39.679Z,958.7495117
2022-10-11T06:44:40.276Z,958.7680664
2022-10-11T06:45:40.881Z,958.7566528
2022-10-11T06:46:41.398Z,958.805542
2022-10-11T06:47:41.952Z,958.7885742
2022-10-11T06:48:42.451Z,958.8309326
2022-10-11T06:49:43.082Z,958.8504639
2022-10-11T06:50:58.975Z,958.8534546
2022-10-11T06:51:44.201Z,958.8696899
2022-10-11T06:52:45.695Z,958.8804932
2022-10-11T06:53:46.187Z,958.9456177
2022-10-11T06:54:46.727Z,958.9299927
2022-10-11T06:55:47.297Z,958.9804688
2022-10-11T06:56:47.845Z,958.9831543
2022-10-11T06:57:49.215Z,958.9906006
2022-10-11T06:58:49.750Z,959.0250244
2022-10-11T06:59:50.511Z,959.0184326
2022-10-11T07:00:51.071Z,959.0119019
2022-10-11T07:01:52.246Z,959.0383301
2022-10-11T07:02:53.745Z,959.0579834
2022-10-11T07:03:54.342Z,959.0580444
2022-10-11T07:04:54.804Z,959.0411987
2022-10-11T07:05:58.987Z,959.0753174
2022-10-11T07:06:55.759Z,959.0594482
2022-10-11T07:07:56.350Z,959.0709229
2022-10-11T07:08:56.914Z,959.041626
2022-10-11T07:09:57.545Z,959.0339355
2022-10-11T07:10:58.075Z,959.0909424
2022-10-11T07:11:58.538Z,959.0653076
2022-10-11T07:12:59.774Z,959.0631104
2022-10-11T07:14:00.369Z,959.0957031
2022-10-11T07:15:00.891Z,959.0783081
2022-10-11T07:16:32.026Z,959.0515747
2022-10-11T07:17:32.493Z,959.0548706
2022-10-11T07:18:34.030Z,959.0532227
2022-10-11T07:19:34.543Z,959.1031494
2022-10-11T07:20:35.062Z,959.0541992
2022-10-11T07:21:36.200Z,959.0530396
2022-10-11T07:22:36.673Z,959.0474854
2022-10-11T07:23:38.034Z,959.055603
2022-10-11T07:24:38.593Z,959.0678101
2022-10-11T07:25:39.125Z,959.0687256
2022-10-11T07:26:40.461Z,959.0681152
2022-10-11T07:27:40.980Z,959.0797119
2022-10-11T07:28:42.343Z,959.1044312
2022-10-11T07:29:42.860Z,959.1132813
2022-10-11T07:30:44.203Z,959.0946655
2022-10-11T07:31:44.755Z,959.1029053
2022-10-11T07:32:45.330Z,959.0942383
2022-10-11T07:33:46.608Z,959.1370239
2022-10-11T07:34:47.337Z,959.0482788
2022-10-11T07:35:48.860Z,959.1021729
2022-10-11T07:36:49.545Z,959.1254883
2022-10-11T07:37:50.126Z,959.085083
2022-10-11T07:38:50.936Z,959.0910034
2022-10-11T07:39:51.759Z,959.1077881
2022-10-11T07:40:53.271Z,959.1012573
2022-10-11T07:41:54.061Z,959.1190796
2022-10-11T07:42:54.775Z,959.1135254
2022-10-11T07:43:55.996Z,959.0819702
2022-10-11T07:44:56.592Z,959.0878906
2022-10-11T07:45:57.531Z,959.0960693
2022-10-11T07:46:58.206Z,959.1034546
2022-10-11T07:47:58.895Z,959.1262207
2022-10-11T07:48:59.466Z,959.1345215
2022-10-11T07:50:00.785Z,959.1353149
2022-10-11T07:51:31.792Z,959.1314087
2022-10-11T07:52:32.541Z,959.1602173
2022-10-11T07:53:34.002Z,959.1273193
2022-10-11T07:54:34.564Z,959.1176758
2022-10-11T07:55:35.168Z,959.090332
2022-10-11T07:56:35.851Z,959.1484375
2022-10-11T07:57:36.548Z,959.1141968
2022-10-11T07:58:37.249Z,959.1021729
2022-10-11T07:59:37.783Z,959.1456299
2022-10-11T08:00:38.378Z,959.1116943
2022-10-11T08:01:38.954Z,959.1182861
2022-10-11T08:02:39.694Z,959.1333618
2022-10-11T08:03:41.043Z,959.1578369
2022-10-11T08:04:41.646Z,959.1394043
2022-10-11T08:05:42.751Z,959.1032104
2022-10-11T08:06:43.289Z,959.1228027
2022-10-11T08:07:44.044Z,959.1074829
2022-10-11T08:08:44.743Z,959.1166992
2022-10-11T08:09:45.393Z,959.1096191
2022-10-11T08:10:46.037Z,959.1018677
2022-10-11T08:11:46.527Z,959.1110229
2022-10-11T08:12:47.143Z,959.1104736
2022-10-11T08:13:48.624Z,959.0941162
2022-10-11T08:14:49.249Z,959.1091919
2022-10-11T08:15:49.842Z,959.123291
2022-10-11T08:16:50.497Z,959.1150513
2022-10-11T08:17:51.009Z,959.0465698
2022-10-11T08:18:51.667Z,959.0991211
2022-10-11T08:19:52.356Z,959.1057129
2022-10-11T08:20:53.609Z,959.085144
2022-10-11T08:21:54.073Z,959.1132813
2022-10-11T08:22:54.582Z,959.1110229
2022-10-11T08:23:55.164Z,959.1397705
2022-10-11T08:24:56.555Z,959.1342163
2022-10-11T08:25:57.208Z,959.1564331
2022-10-11T08:26:57.783Z,959.1296997
2022-10-11T08:27:58.244Z,959.1330566
2022-10-11T08:28:58.955Z,959.2168579
2022-10-11T08:29:59.653Z,959.1964111
2022-10-11T08:31:00.755Z,959.1967773
2022-10-11T08:32:31.594Z,959.1879883
2022-10-11T08:33:32.729Z,959.2298584
2022-10-11T08:34:33.191Z,959.177002
2022-10-11T08:35:33.812Z,959.1623535
2022-10-11T08:36:35.055Z,959.1904907
2022-10-11T08:37:35.649Z,959.1774292
2022-10-11T08:38:36.130Z,959.2054443
2022-10-11T08:39:36.622Z,959.1940918
2022-10-11T08:40:37.189Z,959.1748657
2022-10-11T08:41:37.868Z,959.2000122
2022-10-11T08:42:38.516Z,959.2189941
2022-10-11T08:43:39.717Z,959.2313843
2022-10-11T08:45:13.874Z,959.2253418
2022-10-11T08:45:40.687Z,959.2327881
2022-10-11T08:46:41.387Z,959.2268677
2022-10-11T08:47:41.927Z,959.2240601
2022-10-11T08:48:42.509Z,959.2762451
2022-10-11T08:49:43.076Z,959.2462769
2022-10-11T08:50:43.631Z,959.2733765
2022-10-11T08:51:44.152Z,959.2512207
2022-10-11T08:52:44.849Z,959.2684326
2022-10-11T08:53:46.297Z,959.2851563
2022-10-11T08:54:46.821Z,959.2991943
2022-10-11T08:55:47.328Z,959.3061523
2022-10-11T08:56:47.847Z,959.3121338
2022-10-11T08:57:48.414Z,959.3255615
2022-10-11T08:58:49.073Z,959.3161011
2022-10-11T08:59:49.750Z,959.296875
2022-10-11T09:00:50.490Z,959.3060913
2022-10-11T09:01:51.083Z,959.2457275
2022-10-11T09:03:07.465Z,959.2706299
2022-10-11T09:03:52.801Z,959.2503662
2022-10-11T09:04:53.420Z,959.263855
2022-10-11T09:05:53.971Z,959.211853
2022-10-11T09:06:55.478Z,959.2227173
2022-10-11T09:07:55.951Z,959.2247925
2022-10-11T09:08:56.586Z,959.2234497
2022-10-11T09:09:57.236Z,959.2179565
2022-10-11T09:10:57.863Z,959.2192383
2022-10-11T09:11:58.367Z,959.2039185
2022-10-11T09:12:58.841Z,959.2379761
2022-10-11T09:14:00.328Z,959.2377319
2022-10-11T09:15:31.320Z,959.2495117
2022-10-11T09:16:31.904Z,959.2416992
2022-10-11T09:17:32.436Z,959.2626343
2022-10-11T09:18:32.902Z,959.2695313
2022-10-11T09:19:33.518Z,959.2267456
2022-10-11T09:20:35.014Z,959.2545166
2022-10-11T09:21:35.651Z,959.2444458
2022-10-11T09:22:36.217Z,959.171936
2022-10-11T09:23:37.222Z,959.1546631
2022-10-11T09:24:37.721Z,959.1964722
2022-10-11T09:25:38.394Z,959.1696777
2022-10-11T09:26:39.052Z,959.1645508
2022-10-11T09:28:01.341Z,959.178894
2022-10-11T09:28:40.187Z,959.1566162
2022-10-11T09:29:40.624Z,959.1831055
2022-10-11T09:30:41.119Z,959.157959
2022-10-11T09:31:41.802Z,959.1602173
2022-10-11T09:32:42.407Z,959.1573486
2022-10-11T09:33:43.720Z,959.1322021
2022-10-11T09:34:44.249Z,959.1350708
2022-10-11T09:35:44.772Z,959.1239014
2022-10-11T09:36:45.258Z,959.1314087
2022-10-11T09:37:45.881Z,959.1082764
2022-10-11T09:38:46.623Z,959.1124878
2022-10-11T09:39:47.227Z,959.0892334
2022-10-11T09:40:48.473Z,959.0650635
2022-10-11T09:41:48.919Z,959.1134644
2022-10-11T09:42:49.574Z,959.086853
2022-10-11T09:43:50.777Z,959.055481
2022-10-11T09:44:51.389Z,959.0819702
2022-10-11T09:45:51.828Z,959.0309448
2022-10-11T09:46:52.325Z,958.9981079
2022-10-11T09:47:52.921Z,958.9938965
2022-10-11T09:48:53.518Z,958.9827271
2022-10-11T09:49:54.151Z,959.001709
2022-10-11T09:50:54.766Z,958.9833374
2022-10-11T09:51:55.276Z,958.9829712
2022-10-11T09:52:56.506Z,958.9880981
2022-10-11T09:53:57.771Z,959.0031128
2022-10-11T09:54:58.368Z,958.9854126
2022-10-11T09:55:58.905Z,958.9787598
2022-10-11T09:57:30.037Z,959.0084229
2022-10-11T09:58:30.544Z,958.9973145
2022-10-11T09:59:31.094Z,959.0172119
2022-10-11T10:00:31.740Z,959.0456543
2022-10-11T10:01:32.481Z,959.0513916
2022-10-11T10:02:33.006Z,959.0614624
2022-10-11T10:03:33.517Z,959.0421143
2022-10-11T10:04:35.094Z,959.0273438
2022-10-11T10:05:35.746Z,959.008606
2022-10-11T10:06:37.309Z,959.0252075
2022-10-11T10:07:37.883Z,958.9993896
2022-10-11T10:08:38.408Z,958.9940796
2022-10-11T10:09:38.941Z,958.9910278
2022-10-11T10:10:39.693Z,959.0435791
2022-10-11T10:11:40.412Z,959.0300903
2022-10-11T10:12:41.048Z,959.043457
2022-10-11T10:13:41.669Z,959.0462646
2022-10-11T10:14:43.056Z,959.0218506
2022-10-11T10:15:43.627Z,959.0532837
2022-10-11T10:16:44.483Z,959.0378418
2022-10-11T10:17:45.757Z,959.0415649
2022-10-11T10:18:46.375Z,959.0353394
2022-10-11T10:19:46.982Z,959.0632935
2022-10-11T10:20:47.611Z,959.0006104
2022-10-11T10:21:49.230Z,959.0067139
2022-10-11T10:22:49.957Z,959.0014038
2022-10-11T10:23:50.634Z,958.9916992
2022-10-11T10:24:52.009Z,958.9657593
2022-10-11T10:25:52.555Z,958.9315796
2022-10-11T10:26:54.021Z,958.9622803
2022-10-11T10:27:54.725Z,958.9247437
2022-10-11T10:28:55.467Z,958.935791
2022-10-11T10:29:56.160Z,958.9378052
2022-10-11T10:30:56.802Z,958.9298706
2022-10-11T10:32:14.741Z,958.9407959
2022-10-11T10:32:58.646Z,958.9464111
2022-10-11T10:34:30.255Z,958.9494629
2022-10-11T10:35:31.032Z,958.9538574
2022-10-11T10:36:32.245Z,958.9360352
2022-10-11T10:37:32.836Z,958.9285889
2022-10-11T10:38:33.494Z,958.9095459
2022-10-11T10:39:34.122Z,958.8604736
2022-10-11T10:40:34.722Z,958.9172363
2022-10-11T10:41:35.269Z,958.8986816
2022-10-11T10:42:36.759Z,958.9014282
2022-10-11T10:43:37.479Z,958.9025269
2022-10-11T10:44:39.071Z,958.9403076
2022-10-11T10:45:39.806Z,958.9046631
2022-10-11T10:46:40.334Z,958.9123535
2022-10-11T10:47:40.854Z,958.8773193
2022-10-11T10:49:12.053Z,958.9151611
2022-10-11T10:49:53.592Z,958.9352417
2022-10-11T10:50:42.671Z,958.9222412
2022-10-11T10:51:43.751Z,958.9216919
2022-10-11T10:52:44.219Z,958.8637695
2022-10-11T10:53:44.740Z,958.852356
2022-10-11T10:54:46.000Z,958.8845825
2022-10-11T10:55:46.716Z,958.890625
2022-10-11T10:56:47.310Z,958.9161987
2022-10-11T10:57:47.940Z,958.9008789
2022-10-11T10:58:48.467Z,958.9026489
2022-10-11T10:59:48.997Z,958.890625
2022-10-11T11:00:49.613Z,958.8503418
2022-10-11T11:01:50.554Z,958.9032593
2022-10-11T11:02:51.101Z,958.84375
2022-10-11T11:03:51.647Z,958.8379517